sensor_id;sensor_type;location;lat;lon;timestamp;P1;durP1;ratioP1;P2;durP2;ratioP2
15331;SDS011;7766;51.534;6.722;2022-12-10T00:00:42;55.78;;;28.92;;
15331;SDS011;7766;51.534;6.722;2022-12-10T00:01:43;56.60;;;28.63;;
15331;SDS011;7766;51.534;6.722;2022-12-10T00:02:44;54.53;;;27.75;;
15331;SDS011;7766;51.534;6.722;2022-12-10T00:03:45;54.58;;;28.23;;
15331;SDS011;7766;51.534;6.722;2022-12-10T00:04:46;54.92;;;28.73;;
15331;SDS011;7766;51.534;6.722;2022-12-10T00:05:47;48.28;;;27.73;;
15331;SDS011;7766;51.534;6.722;2022-12-10T00:06:48;55.03;;;28.83;;
15331;SDS011;7766;51.534;6.722;2022-12-10T00:07:49;54.70;;;29.13;;
15331;SDS011;7766;51.534;6.722;2022-12-10T00:08:50;55.85;;;30.40;;
15331;SDS011;7766;51.534;6.722;2022-12-10T00:09:52;57.45;;;29.52;;
15331;SDS011;7766;51.534;6.722;2022-12-10T00:10:53;59.45;;;30.38;;
15331;SDS011;7766;51.534;6.722;2022-12-10T00:11:54;59.55;;;31.80;;
15331;SDS011;7766;51.534;6.722;2022-12-10T00:12:55;58.72;;;29.98;;
15331;SDS011;7766;51.534;6.722;2022-12-10T00:13:56;55.60;;;28.70;;
15331;SDS011;7766;51.534;6.722;2022-12-10T00:14:58;55.00;;;29.38;;
15331;SDS011;7766;51.534;6.722;2022-12-10T00:15:59;52.45;;;27.50;;
15331;SDS011;7766;51.534;6.722;2022-12-10T00:17:01;59.22;;;29.02;;
15331;SDS011;7766;51.534;6.722;2022-12-10T00:18:02;53.70;;;27.70;;
15331;SDS011;7766;51.534;6.722;2022-12-10T00:19:03;55.90;;;27.60;;
15331;SDS011;7766;51.534;6.722;2022-12-10T00:20:05;54.67;;;28.58;;
15331;SDS011;7766;51.534;6.722;2022-12-10T00:21:10;57.30;;;27.98;;
15331;SDS011;7766;51.534;6.722;2022-12-10T00:22:13;53.45;;;26.65;;
15331;SDS011;7766;51.534;6.722;2022-12-10T00:23:14;56.90;;;28.10;;
15331;SDS011;7766;51.534;6.722;2022-12-10T00:24:16;54.33;;;27.98;;
15331;SDS011;7766;51.534;6.722;2022-12-10T00:25:17;54.15;;;28.98;;
15331;SDS011;7766;51.534;6.722;2022-12-10T00:26:19;54.45;;;27.75;;
15331;SDS011;7766;51.534;6.722;2022-12-10T00:27:21;54.78;;;28.45;;
15331;SDS011;7766;51.534;6.722;2022-12-10T00:28:22;53.00;;;27.58;;
15331;SDS011;7766;51.534;6.722;2022-12-10T00:29:23;59.17;;;28.13;;
15331;SDS011;7766;51.534;6.722;2022-12-10T00:30:24;53.67;;;27.77;;
15331;SDS011;7766;51.534;6.722;2022-12-10T00:31:27;55.55;;;29.63;;
15331;SDS011;7766;51.534;6.722;2022-12-10T00:32:29;53.72;;;27.67;;
15331;SDS011;7766;51.534;6.722;2022-12-10T00:33:30;53.65;;;29.42;;
15331;SDS011;7766;51.534;6.722;2022-12-10T00:34:32;55.25;;;27.83;;
15331;SDS011;7766;51.534;6.722;2022-12-10T00:35:35;53.83;;;27.73;;
15331;SDS011;7766;51.534;6.722;2022-12-10T00:36:39;52.75;;;27.63;;
15331;SDS011;7766;51.534;6.722;2022-12-10T00:37:44;57.65;;;28.00;;
15331;SDS011;7766;51.534;6.722;2022-12-10T00:38:46;55.72;;;28.50;;
15331;SDS011;7766;51.534;6.722;2022-12-10T00:39:47;53.58;;;27.30;;
15331;SDS011;7766;51.534;6.722;2022-12-10T00:40:48;54.22;;;27.83;;
15331;SDS011;7766;51.534;6.722;2022-12-10T00:41:49;49.65;;;28.42;;
15331;SDS011;7766;51.534;6.722;2022-12-10T00:42:50;53.78;;;29.05;;
15331;SDS011;7766;51.534;6.722;2022-12-10T00:43:51;57.57;;;29.43;;
15331;SDS011;7766;51.534;6.722;2022-12-10T00:44:52;53.05;;;27.50;;
15331;SDS011;7766;51.534;6.722;2022-12-10T00:45:53;54.20;;;28.08;;
15331;SDS011;7766;51.534;6.722;2022-12-10T00:46:54;54.25;;;27.58;;
15331;SDS011;7766;51.534;6.722;2022-12-10T00:47:55;55.38;;;28.13;;
15331;SDS011;7766;51.534;6.722;2022-12-10T00:48:57;55.90;;;27.87;;
15331;SDS011;7766;51.534;6.722;2022-12-10T00:49:59;50.47;;;26.05;;
15331;SDS011;7766;51.534;6.722;2022-12-10T00:51:07;54.33;;;28.02;;
15331;SDS011;7766;51.534;6.722;2022-12-10T00:52:17;51.25;;;27.70;;
15331;SDS011;7766;51.534;6.722;2022-12-10T00:53:18;60.15;;;29.83;;
15331;SDS011;7766;51.534;6.722;2022-12-10T00:54:18;60.40;;;30.13;;
15331;SDS011;7766;51.534;6.722;2022-12-10T00:55:19;64.00;;;33.05;;
15331;SDS011;7766;51.534;6.722;2022-12-10T00:56:22;61.35;;;33.22;;
15331;SDS011;7766;51.534;6.722;2022-12-10T00:57:27;65.55;;;33.38;;
15331;SDS011;7766;51.534;6.722;2022-12-10T00:58:32;62.17;;;32.15;;
15331;SDS011;7766;51.534;6.722;2022-12-10T00:59:34;60.90;;;32.42;;
15331;SDS011;7766;51.534;6.722;2022-12-10T01:00:35;57.35;;;30.90;;
15331;SDS011;7766;51.534;6.722;2022-12-10T01:01:37;59.42;;;31.02;;
15331;SDS011;7766;51.534;6.722;2022-12-10T01:02:41;53.97;;;30.73;;
15331;SDS011;7766;51.534;6.722;2022-12-10T01:03:42;59.20;;;29.40;;
15331;SDS011;7766;51.534;6.722;2022-12-10T01:04:44;52.92;;;29.60;;
15331;SDS011;7766;51.534;6.722;2022-12-10T01:05:45;52.55;;;28.70;;
15331;SDS011;7766;51.534;6.722;2022-12-10T01:06:50;51.25;;;28.17;;
15331;SDS011;7766;51.534;6.722;2022-12-10T01:07:52;56.42;;;26.38;;
15331;SDS011;7766;51.534;6.722;2022-12-10T01:08:54;59.20;;;29.57;;
15331;SDS011;7766;51.534;6.722;2022-12-10T01:09:59;50.75;;;28.58;;
15331;SDS011;7766;51.534;6.722;2022-12-10T01:11:01;56.40;;;28.92;;
15331;SDS011;7766;51.534;6.722;2022-12-10T01:12:02;53.22;;;28.38;;
15331;SDS011;7766;51.534;6.722;2022-12-10T01:13:04;53.85;;;29.92;;
15331;SDS011;7766;51.534;6.722;2022-12-10T01:14:06;52.67;;;28.63;;
15331;SDS011;7766;51.534;6.722;2022-12-10T01:15:09;56.72;;;27.58;;
15331;SDS011;7766;51.534;6.722;2022-12-10T01:16:11;57.67;;;29.30;;
15331;SDS011;7766;51.534;6.722;2022-12-10T01:17:13;54.83;;;28.58;;
15331;SDS011;7766;51.534;6.722;2022-12-10T01:18:14;53.40;;;28.00;;
15331;SDS011;7766;51.534;6.722;2022-12-10T01:19:15;51.97;;;28.02;;
15331;SDS011;7766;51.534;6.722;2022-12-10T01:20:16;54.38;;;28.33;;
15331;SDS011;7766;51.534;6.722;2022-12-10T01:21:18;53.20;;;27.57;;
15331;SDS011;7766;51.534;6.722;2022-12-10T01:22:19;55.35;;;28.40;;
15331;SDS011;7766;51.534;6.722;2022-12-10T01:23:20;48.72;;;29.00;;
15331;SDS011;7766;51.534;6.722;2022-12-10T01:24:22;52.80;;;28.75;;
15331;SDS011;7766;51.534;6.722;2022-12-10T01:25:24;53.30;;;29.27;;
15331;SDS011;7766;51.534;6.722;2022-12-10T01:26:27;49.03;;;27.95;;
15331;SDS011;7766;51.534;6.722;2022-12-10T01:27:29;49.83;;;26.48;;
15331;SDS011;7766;51.534;6.722;2022-12-10T01:28:31;59.05;;;28.60;;
15331;SDS011;7766;51.534;6.722;2022-12-10T01:29:33;53.08;;;27.67;;
15331;SDS011;7766;51.534;6.722;2022-12-10T01:30:34;49.45;;;26.02;;
15331;SDS011;7766;51.534;6.722;2022-12-10T01:31:36;51.35;;;27.27;;
15331;SDS011;7766;51.534;6.722;2022-12-10T01:32:37;56.28;;;28.95;;
15331;SDS011;7766;51.534;6.722;2022-12-10T01:33:38;51.72;;;28.45;;
15331;SDS011;7766;51.534;6.722;2022-12-10T01:34:41;48.05;;;26.52;;
15331;SDS011;7766;51.534;6.722;2022-12-10T01:35:42;48.22;;;26.20;;
15331;SDS011;7766;51.534;6.722;2022-12-10T01:36:43;52.70;;;26.55;;
15331;SDS011;7766;51.534;6.722;2022-12-10T01:37:48;54.05;;;26.63;;
15331;SDS011;7766;51.534;6.722;2022-12-10T01:38:49;51.90;;;27.25;;
15331;SDS011;7766;51.534;6.722;2022-12-10T01:39:51;52.72;;;26.38;;
15331;SDS011;7766;51.534;6.722;2022-12-10T01:40:51;53.13;;;27.50;;
15331;SDS011;7766;51.534;6.722;2022-12-10T01:41:59;51.60;;;27.55;;
15331;SDS011;7766;51.534;6.722;2022-12-10T01:43:00;52.40;;;26.88;;
15331;SDS011;7766;51.534;6.722;2022-12-10T01:44:05;54.65;;;27.65;;
15331;SDS011;7766;51.534;6.722;2022-12-10T01:45:23;56.38;;;26.55;;
15331;SDS011;7766;51.534;6.722;2022-12-10T01:46:29;54.05;;;26.17;;
15331;SDS011;7766;51.534;6.722;2022-12-10T01:47:31;53.08;;;26.90;;
15331;SDS011;7766;51.534;6.722;2022-12-10T01:48:32;55.22;;;28.40;;
15331;SDS011;7766;51.534;6.722;2022-12-10T01:49:36;52.13;;;27.15;;
15331;SDS011;7766;51.534;6.722;2022-12-10T01:50:39;51.53;;;27.40;;
15331;SDS011;7766;51.534;6.722;2022-12-10T01:51:41;55.75;;;27.65;;
15331;SDS011;7766;51.534;6.722;2022-12-10T01:52:42;48.88;;;26.38;;
15331;SDS011;7766;51.534;6.722;2022-12-10T15:19:35;65.43;;;30.42;;
15331;SDS011;7766;51.534;6.722;2022-12-10T15:21:48;73.85;;;33.17;;
15331;SDS011;7766;51.534;6.722;2022-12-10T15:22:50;68.78;;;30.10;;
15331;SDS011;7766;51.534;6.722;2022-12-10T15:25:43;68.30;;;28.15;;
15331;SDS011;7766;51.534;6.722;2022-12-10T15:26:50;66.97;;;27.88;;
15331;SDS011;7766;51.534;6.722;2022-12-10T15:27:52;61.80;;;26.40;;
15331;SDS011;7766;51.534;6.722;2022-12-10T15:29:28;68.00;;;29.35;;
15331;SDS011;7766;51.534;6.722;2022-12-10T15:30:36;75.95;;;32.33;;
15331;SDS011;7766;51.534;6.722;2022-12-10T15:31:38;62.13;;;25.58;;
15331;SDS011;7766;51.534;6.722;2022-12-10T15:32:41;62.67;;;26.40;;
15331;SDS011;7766;51.534;6.722;2022-12-10T15:33:49;63.58;;;26.95;;
15331;SDS011;7766;51.534;6.722;2022-12-10T15:34:56;59.70;;;26.15;;
15331;SDS011;7766;51.534;6.722;2022-12-10T15:36:00;62.13;;;25.30;;
15331;SDS011;7766;51.534;6.722;2022-12-10T15:37:03;70.28;;;33.28;;
15331;SDS011;7766;51.534;6.722;2022-12-10T15:38:04;64.55;;;27.85;;
15331;SDS011;7766;51.534;6.722;2022-12-10T15:39:12;67.10;;;27.23;;
15331;SDS011;7766;51.534;6.722;2022-12-10T15:40:24;62.13;;;27.33;;
15331;SDS011;7766;51.534;6.722;2022-12-10T15:43:10;56.03;;;24.48;;
15331;SDS011;7766;51.534;6.722;2022-12-10T15:45:40;58.53;;;26.95;;
15331;SDS011;7766;51.534;6.722;2022-12-10T15:46:49;54.45;;;24.27;;
15331;SDS011;7766;51.534;6.722;2022-12-10T15:47:51;64.53;;;27.45;;
15331;SDS011;7766;51.534;6.722;2022-12-10T15:48:56;57.17;;;25.00;;
15331;SDS011;7766;51.534;6.722;2022-12-10T15:49:57;63.75;;;27.70;;
15331;SDS011;7766;51.534;6.722;2022-12-10T15:50:58;54.75;;;26.08;;
15331;SDS011;7766;51.534;6.722;2022-12-10T15:51:59;56.05;;;25.52;;
15331;SDS011;7766;51.534;6.722;2022-12-10T15:53:00;57.47;;;26.08;;
15331;SDS011;7766;51.534;6.722;2022-12-10T15:54:11;55.40;;;27.17;;
15331;SDS011;7766;51.534;6.722;2022-12-10T15:55:19;59.17;;;25.80;;
15331;SDS011;7766;51.534;6.722;2022-12-10T15:56:20;55.10;;;25.95;;
15331;SDS011;7766;51.534;6.722;2022-12-10T15:58:25;56.03;;;25.92;;
15331;SDS011;7766;51.534;6.722;2022-12-10T15:59:26;55.55;;;25.48;;
15331;SDS011;7766;51.534;6.722;2022-12-10T16:00:27;53.47;;;24.48;;
15331;SDS011;7766;51.534;6.722;2022-12-10T16:01:28;53.72;;;22.98;;
15331;SDS011;7766;51.534;6.722;2022-12-10T16:02:36;52.67;;;24.15;;
15331;SDS011;7766;51.534;6.722;2022-12-10T16:03:40;53.25;;;24.35;;
15331;SDS011;7766;51.534;6.722;2022-12-10T16:04:41;56.55;;;22.95;;
15331;SDS011;7766;51.534;6.722;2022-12-10T16:05:42;50.92;;;24.27;;
15331;SDS011;7766;51.534;6.722;2022-12-10T16:06:46;55.35;;;24.30;;
15331;SDS011;7766;51.534;6.722;2022-12-10T16:07:48;50.35;;;23.48;;
15331;SDS011;7766;51.534;6.722;2022-12-10T16:08:50;56.88;;;26.05;;
15331;SDS011;7766;51.534;6.722;2022-12-10T16:09:51;58.08;;;24.17;;
15331;SDS011;7766;51.534;6.722;2022-12-10T16:10:53;57.00;;;25.10;;
15331;SDS011;7766;51.534;6.722;2022-12-10T16:12:02;59.03;;;25.10;;
15331;SDS011;7766;51.534;6.722;2022-12-10T16:13:04;57.83;;;26.73;;
15331;SDS011;7766;51.534;6.722;2022-12-10T16:14:13;57.95;;;25.15;;
15331;SDS011;7766;51.534;6.722;2022-12-10T16:15:18;62.67;;;27.17;;
15331;SDS011;7766;51.534;6.722;2022-12-10T16:16:22;58.58;;;27.08;;
15331;SDS011;7766;51.534;6.722;2022-12-10T16:17:24;59.42;;;27.52;;
15331;SDS011;7766;51.534;6.722;2022-12-10T16:18:28;55.65;;;27.88;;
15331;SDS011;7766;51.534;6.722;2022-12-10T16:19:30;56.75;;;27.35;;
15331;SDS011;7766;51.534;6.722;2022-12-10T16:20:31;58.20;;;25.70;;
15331;SDS011;7766;51.534;6.722;2022-12-10T16:21:32;50.60;;;24.80;;
15331;SDS011;7766;51.534;6.722;2022-12-10T16:22:33;59.63;;;28.60;;
15331;SDS011;7766;51.534;6.722;2022-12-10T16:23:34;75.72;;;39.53;;
15331;SDS011;7766;51.534;6.722;2022-12-10T16:24:36;59.03;;;27.02;;
15331;SDS011;7766;51.534;6.722;2022-12-10T16:25:37;60.97;;;28.77;;
15331;SDS011;7766;51.534;6.722;2022-12-10T16:26:43;60.88;;;28.00;;
15331;SDS011;7766;51.534;6.722;2022-12-10T16:27:44;55.70;;;24.80;;
15331;SDS011;7766;51.534;6.722;2022-12-10T16:28:45;57.33;;;26.20;;
15331;SDS011;7766;51.534;6.722;2022-12-10T16:29:47;55.17;;;26.02;;
15331;SDS011;7766;51.534;6.722;2022-12-10T16:30:49;55.17;;;26.30;;
15331;SDS011;7766;51.534;6.722;2022-12-10T16:31:51;53.72;;;26.95;;
15331;SDS011;7766;51.534;6.722;2022-12-10T16:32:52;56.90;;;26.15;;
15331;SDS011;7766;51.534;6.722;2022-12-10T16:33:55;53.60;;;25.02;;
15331;SDS011;7766;51.534;6.722;2022-12-10T16:34:56;63.65;;;26.85;;
15331;SDS011;7766;51.534;6.722;2022-12-10T16:35:57;54.00;;;24.65;;
15331;SDS011;7766;51.534;6.722;2022-12-10T16:36:58;53.75;;;24.20;;
15331;SDS011;7766;51.534;6.722;2022-12-10T16:37:59;52.03;;;23.50;;
15331;SDS011;7766;51.534;6.722;2022-12-10T16:39:00;52.20;;;23.88;;
15331;SDS011;7766;51.534;6.722;2022-12-10T16:40:02;52.10;;;24.00;;
15331;SDS011;7766;51.534;6.722;2022-12-10T16:41:06;49.08;;;24.27;;
15331;SDS011;7766;51.534;6.722;2022-12-10T16:42:16;50.22;;;23.00;;
15331;SDS011;7766;51.534;6.722;2022-12-10T16:43:18;54.10;;;25.02;;
15331;SDS011;7766;51.534;6.722;2022-12-10T16:44:25;49.45;;;23.80;;
15331;SDS011;7766;51.534;6.722;2022-12-10T16:45:27;53.58;;;24.27;;
15331;SDS011;7766;51.534;6.722;2022-12-10T16:46:36;57.10;;;24.50;;
15331;SDS011;7766;51.534;6.722;2022-12-10T16:47:37;50.77;;;25.33;;
15331;SDS011;7766;51.534;6.722;2022-12-10T16:48:38;55.03;;;25.83;;
15331;SDS011;7766;51.534;6.722;2022-12-10T16:49:39;53.53;;;25.05;;
15331;SDS011;7766;51.534;6.722;2022-12-10T16:50:41;55.90;;;25.73;;
15331;SDS011;7766;51.534;6.722;2022-12-10T16:51:43;60.42;;;26.58;;
15331;SDS011;7766;51.534;6.722;2022-12-10T16:52:44;56.33;;;25.77;;
15331;SDS011;7766;51.534;6.722;2022-12-10T16:53:45;54.55;;;26.65;;
15331;SDS011;7766;51.534;6.722;2022-12-10T16:54:46;58.20;;;26.95;;
15331;SDS011;7766;51.534;6.722;2022-12-10T16:55:47;53.58;;;25.35;;
15331;SDS011;7766;51.534;6.722;2022-12-10T16:56:48;60.33;;;26.95;;
15331;SDS011;7766;51.534;6.722;2022-12-10T16:57:49;58.40;;;27.43;;
15331;SDS011;7766;51.534;6.722;2022-12-10T16:58:50;57.40;;;27.77;;
15331;SDS011;7766;51.534;6.722;2022-12-10T16:59:51;53.80;;;27.63;;
15331;SDS011;7766;51.534;6.722;2022-12-10T17:00:53;59.42;;;30.05;;
15331;SDS011;7766;51.534;6.722;2022-12-10T17:01:54;58.78;;;26.73;;
15331;SDS011;7766;51.534;6.722;2022-12-10T17:02:55;59.50;;;26.87;;
15331;SDS011;7766;51.534;6.722;2022-12-10T17:04:08;61.22;;;27.38;;
15331;SDS011;7766;51.534;6.722;2022-12-10T17:05:14;59.22;;;26.83;;
15331;SDS011;7766;51.534;6.722;2022-12-10T17:06:27;53.90;;;24.63;;
15331;SDS011;7766;51.534;6.722;2022-12-10T17:07:28;62.03;;;27.70;;
15331;SDS011;7766;51.534;6.722;2022-12-10T17:08:29;61.95;;;26.85;;
15331;SDS011;7766;51.534;6.722;2022-12-10T17:09:30;51.53;;;26.20;;
15331;SDS011;7766;51.534;6.722;2022-12-10T17:10:31;55.27;;;25.50;;
15331;SDS011;7766;51.534;6.722;2022-12-10T17:11:50;53.50;;;25.67;;
15331;SDS011;7766;51.534;6.722;2022-12-10T17:12:52;60.63;;;26.42;;
15331;SDS011;7766;51.534;6.722;2022-12-10T17:13:53;57.97;;;26.52;;
15331;SDS011;7766;51.534;6.722;2022-12-10T17:14:55;56.42;;;25.25;;
15331;SDS011;7766;51.534;6.722;2022-12-10T17:15:56;54.42;;;26.63;;
15331;SDS011;7766;51.534;6.722;2022-12-10T17:16:58;55.88;;;24.50;;
15331;SDS011;7766;51.534;6.722;2022-12-10T17:18:00;49.55;;;25.13;;
15331;SDS011;7766;51.534;6.722;2022-12-10T17:19:02;53.78;;;24.88;;
15331;SDS011;7766;51.534;6.722;2022-12-10T17:20:19;51.50;;;25.15;;
15331;SDS011;7766;51.534;6.722;2022-12-10T17:21:20;53.45;;;24.20;;
15331;SDS011;7766;51.534;6.722;2022-12-10T17:22:21;60.60;;;25.70;;
15331;SDS011;7766;51.534;6.722;2022-12-10T17:23:23;58.53;;;24.83;;
15331;SDS011;7766;51.534;6.722;2022-12-10T17:24:25;50.22;;;22.48;;
15331;SDS011;7766;51.534;6.722;2022-12-10T17:25:26;52.75;;;23.75;;
15331;SDS011;7766;51.534;6.722;2022-12-10T17:26:28;52.60;;;23.08;;
15331;SDS011;7766;51.534;6.722;2022-12-10T17:27:30;55.70;;;25.25;;
15331;SDS011;7766;51.534;6.722;2022-12-10T17:28:31;52.72;;;23.80;;
15331;SDS011;7766;51.534;6.722;2022-12-10T17:29:35;57.63;;;23.65;;
15331;SDS011;7766;51.534;6.722;2022-12-10T17:30:39;60.55;;;24.98;;
15331;SDS011;7766;51.534;6.722;2022-12-10T17:31:40;59.28;;;25.70;;
15331;SDS011;7766;51.534;6.722;2022-12-10T17:32:42;54.97;;;25.65;;
15331;SDS011;7766;51.534;6.722;2022-12-10T17:33:43;53.50;;;24.35;;
15331;SDS011;7766;51.534;6.722;2022-12-10T17:34:44;59.55;;;26.60;;
15331;SDS011;7766;51.534;6.722;2022-12-10T17:35:45;59.38;;;26.77;;
15331;SDS011;7766;51.534;6.722;2022-12-10T17:36:47;55.47;;;24.55;;
15331;SDS011;7766;51.534;6.722;2022-12-10T17:37:49;56.40;;;24.40;;
15331;SDS011;7766;51.534;6.722;2022-12-10T17:38:53;58.40;;;26.08;;
15331;SDS011;7766;51.534;6.722;2022-12-10T17:39:54;56.80;;;25.60;;
15331;SDS011;7766;51.534;6.722;2022-12-10T17:40:54;56.03;;;25.13;;
15331;SDS011;7766;51.534;6.722;2022-12-10T17:41:55;58.57;;;26.40;;
15331;SDS011;7766;51.534;6.722;2022-12-10T17:42:56;58.63;;;26.25;;
15331;SDS011;7766;51.534;6.722;2022-12-10T17:43:57;54.67;;;25.85;;
15331;SDS011;7766;51.534;6.722;2022-12-10T17:44:58;53.67;;;26.02;;
15331;SDS011;7766;51.534;6.722;2022-12-10T17:46:00;62.20;;;27.25;;
15331;SDS011;7766;51.534;6.722;2022-12-10T17:47:01;59.42;;;26.75;;
15331;SDS011;7766;51.534;6.722;2022-12-10T17:48:15;55.67;;;26.60;;
15331;SDS011;7766;51.534;6.722;2022-12-10T17:49:18;61.35;;;26.85;;
15331;SDS011;7766;51.534;6.722;2022-12-10T17:50:32;57.53;;;26.75;;
15331;SDS011;7766;51.534;6.722;2022-12-10T17:51:35;55.90;;;26.90;;
15331;SDS011;7766;51.534;6.722;2022-12-10T17:52:36;58.60;;;25.27;;
15331;SDS011;7766;51.534;6.722;2022-12-10T17:53:36;57.63;;;25.50;;
15331;SDS011;7766;51.534;6.722;2022-12-10T17:54:37;57.27;;;26.27;;
15331;SDS011;7766;51.534;6.722;2022-12-10T17:55:38;53.75;;;26.17;;
15331;SDS011;7766;51.534;6.722;2022-12-10T17:56:40;56.13;;;25.02;;
15331;SDS011;7766;51.534;6.722;2022-12-10T17:57:42;57.53;;;25.77;;
15331;SDS011;7766;51.534;6.722;2022-12-10T17:58:44;54.90;;;26.75;;
15331;SDS011;7766;51.534;6.722;2022-12-10T17:59:46;55.88;;;26.75;;
15331;SDS011;7766;51.534;6.722;2022-12-10T18:00:48;55.97;;;26.00;;
15331;SDS011;7766;51.534;6.722;2022-12-10T18:01:49;56.80;;;25.83;;
15331;SDS011;7766;51.534;6.722;2022-12-10T18:02:50;56.15;;;26.77;;
15331;SDS011;7766;51.534;6.722;2022-12-10T18:03:52;57.97;;;26.48;;
15331;SDS011;7766;51.534;6.722;2022-12-10T18:04:54;53.28;;;25.33;;
15331;SDS011;7766;51.534;6.722;2022-12-10T18:05:55;55.33;;;25.83;;
15331;SDS011;7766;51.534;6.722;2022-12-10T18:06:56;55.90;;;26.83;;
15331;SDS011;7766;51.534;6.722;2022-12-10T18:07:57;52.50;;;25.50;;
15331;SDS011;7766;51.534;6.722;2022-12-10T18:08:59;61.97;;;27.20;;
15331;SDS011;7766;51.534;6.722;2022-12-10T18:10:01;55.05;;;25.92;;
15331;SDS011;7766;51.534;6.722;2022-12-10T18:11:05;56.70;;;25.38;;
15331;SDS011;7766;51.534;6.722;2022-12-10T18:12:07;53.97;;;26.52;;
15331;SDS011;7766;51.534;6.722;2022-12-10T18:13:08;54.78;;;26.10;;
15331;SDS011;7766;51.534;6.722;2022-12-10T18:14:09;61.75;;;27.80;;
15331;SDS011;7766;51.534;6.722;2022-12-10T18:15:11;59.53;;;26.50;;
15331;SDS011;7766;51.534;6.722;2022-12-10T18:16:13;60.30;;;27.77;;
15331;SDS011;7766;51.534;6.722;2022-12-10T18:17:18;58.88;;;27.25;;
15331;SDS011;7766;51.534;6.722;2022-12-10T18:18:19;58.95;;;27.48;;
15331;SDS011;7766;51.534;6.722;2022-12-10T18:19:20;67.40;;;27.90;;
15331;SDS011;7766;51.534;6.722;2022-12-10T18:20:26;62.10;;;28.42;;
15331;SDS011;7766;51.534;6.722;2022-12-10T18:21:30;57.58;;;26.90;;
15331;SDS011;7766;51.534;6.722;2022-12-10T18:22:31;62.17;;;27.60;;
15331;SDS011;7766;51.534;6.722;2022-12-10T18:23:32;53.40;;;25.35;;
15331;SDS011;7766;51.534;6.722;2022-12-10T18:24:34;51.35;;;26.25;;
15331;SDS011;7766;51.534;6.722;2022-12-10T18:25:35;57.00;;;26.85;;
15331;SDS011;7766;51.534;6.722;2022-12-10T18:26:37;60.75;;;26.77;;
15331;SDS011;7766;51.534;6.722;2022-12-10T18:27:38;56.20;;;27.00;;
15331;SDS011;7766;51.534;6.722;2022-12-10T18:29:40;61.08;;;28.27;;
15331;SDS011;7766;51.534;6.722;2022-12-10T18:30:41;57.45;;;26.50;;
15331;SDS011;7766;51.534;6.722;2022-12-10T18:31:42;61.10;;;26.37;;
15331;SDS011;7766;51.534;6.722;2022-12-10T18:32:44;59.25;;;28.52;;
15331;SDS011;7766;51.534;6.722;2022-12-10T18:33:47;59.65;;;28.00;;
15331;SDS011;7766;51.534;6.722;2022-12-10T18:34:50;64.82;;;28.00;;
15331;SDS011;7766;51.534;6.722;2022-12-10T18:35:52;57.60;;;25.83;;
15331;SDS011;7766;51.534;6.722;2022-12-10T18:36:53;56.25;;;26.08;;
15331;SDS011;7766;51.534;6.722;2022-12-10T18:37:54;57.80;;;26.40;;
15331;SDS011;7766;51.534;6.722;2022-12-10T18:38:55;56.43;;;26.93;;
15331;SDS011;7766;51.534;6.722;2022-12-10T18:39:57;57.35;;;27.25;;
15331;SDS011;7766;51.534;6.722;2022-12-10T18:40:58;54.80;;;26.35;;
15331;SDS011;7766;51.534;6.722;2022-12-10T18:41:59;58.37;;;26.63;;
15331;SDS011;7766;51.534;6.722;2022-12-10T18:43:00;63.90;;;28.33;;
15331;SDS011;7766;51.534;6.722;2022-12-10T18:44:01;62.60;;;27.20;;
15331;SDS011;7766;51.534;6.722;2022-12-10T18:45:02;60.95;;;29.48;;
15331;SDS011;7766;51.534;6.722;2022-12-10T18:46:04;66.15;;;30.13;;
15331;SDS011;7766;51.534;6.722;2022-12-10T18:47:07;72.35;;;31.20;;
15331;SDS011;7766;51.534;6.722;2022-12-10T18:48:09;66.25;;;31.38;;
15331;SDS011;7766;51.534;6.722;2022-12-10T18:49:14;72.30;;;30.17;;
15331;SDS011;7766;51.534;6.722;2022-12-10T18:50:18;66.32;;;30.55;;
15331;SDS011;7766;51.534;6.722;2022-12-10T18:51:23;67.55;;;28.75;;
15331;SDS011;7766;51.534;6.722;2022-12-10T18:52:24;66.28;;;29.83;;
15331;SDS011;7766;51.534;6.722;2022-12-10T18:53:25;67.93;;;30.60;;
15331;SDS011;7766;51.534;6.722;2022-12-10T18:54:26;69.75;;;30.88;;
15331;SDS011;7766;51.534;6.722;2022-12-10T18:55:27;68.82;;;31.40;;
15331;SDS011;7766;51.534;6.722;2022-12-10T18:56:29;71.03;;;29.30;;
15331;SDS011;7766;51.534;6.722;2022-12-10T18:57:33;69.63;;;28.83;;
15331;SDS011;7766;51.534;6.722;2022-12-10T18:58:35;64.45;;;28.50;;
15331;SDS011;7766;51.534;6.722;2022-12-10T18:59:36;66.43;;;30.25;;
15331;SDS011;7766;51.534;6.722;2022-12-10T19:00:37;71.82;;;29.67;;
15331;SDS011;7766;51.534;6.722;2022-12-10T19:01:39;68.88;;;29.65;;
15331;SDS011;7766;51.534;6.722;2022-12-10T19:02:40;69.88;;;28.85;;
15331;SDS011;7766;51.534;6.722;2022-12-10T19:03:41;70.13;;;32.00;;
15331;SDS011;7766;51.534;6.722;2022-12-10T19:04:42;72.43;;;30.23;;
15331;SDS011;7766;51.534;6.722;2022-12-10T19:05:43;72.47;;;32.03;;
15331;SDS011;7766;51.534;6.722;2022-12-10T19:06:44;68.25;;;30.10;;
15331;SDS011;7766;51.534;6.722;2022-12-10T19:07:45;71.68;;;31.23;;
15331;SDS011;7766;51.534;6.722;2022-12-10T19:08:47;67.47;;;30.80;;
15331;SDS011;7766;51.534;6.722;2022-12-10T19:09:49;68.72;;;29.35;;
15331;SDS011;7766;51.534;6.722;2022-12-10T19:10:51;71.45;;;29.95;;
15331;SDS011;7766;51.534;6.722;2022-12-10T19:11:52;65.67;;;27.97;;
15331;SDS011;7766;51.534;6.722;2022-12-10T19:12:53;68.22;;;29.45;;
15331;SDS011;7766;51.534;6.722;2022-12-10T19:13:54;67.03;;;30.08;;
15331;SDS011;7766;51.534;6.722;2022-12-10T19:14:55;70.95;;;29.35;;
15331;SDS011;7766;51.534;6.722;2022-12-10T19:15:56;63.80;;;27.90;;
15331;SDS011;7766;51.534;6.722;2022-12-10T19:16:58;61.30;;;27.45;;
15331;SDS011;7766;51.534;6.722;2022-12-10T19:18:00;69.47;;;28.20;;
15331;SDS011;7766;51.534;6.722;2022-12-10T19:19:03;62.50;;;27.08;;
15331;SDS011;7766;51.534;6.722;2022-12-10T19:20:06;69.45;;;30.40;;
15331;SDS011;7766;51.534;6.722;2022-12-10T19:21:13;67.88;;;29.17;;
15331;SDS011;7766;51.534;6.722;2022-12-10T19:22:14;71.55;;;28.90;;
15331;SDS011;7766;51.534;6.722;2022-12-10T19:23:15;69.50;;;29.10;;
15331;SDS011;7766;51.534;6.722;2022-12-10T19:24:16;65.85;;;27.85;;
15331;SDS011;7766;51.534;6.722;2022-12-10T19:25:17;69.75;;;29.25;;
15331;SDS011;7766;51.534;6.722;2022-12-10T19:26:35;69.47;;;28.58;;
15331;SDS011;7766;51.534;6.722;2022-12-10T19:27:37;66.07;;;27.77;;
15331;SDS011;7766;51.534;6.722;2022-12-10T19:28:38;65.03;;;27.55;;
15331;SDS011;7766;51.534;6.722;2022-12-10T19:29:39;61.17;;;26.85;;
15331;SDS011;7766;51.534;6.722;2022-12-10T19:30:40;71.43;;;27.23;;
15331;SDS011;7766;51.534;6.722;2022-12-10T19:31:42;59.83;;;27.17;;
15331;SDS011;7766;51.534;6.722;2022-12-10T19:32:46;63.28;;;24.25;;
15331;SDS011;7766;51.534;6.722;2022-12-10T19:33:48;60.80;;;26.52;;
15331;SDS011;7766;51.534;6.722;2022-12-10T19:34:48;61.50;;;26.60;;
15331;SDS011;7766;51.534;6.722;2022-12-10T19:35:49;68.22;;;27.52;;
15331;SDS011;7766;51.534;6.722;2022-12-10T19:36:50;60.03;;;24.87;;
15331;SDS011;7766;51.534;6.722;2022-12-10T19:37:51;58.30;;;23.38;;
15331;SDS011;7766;51.534;6.722;2022-12-10T19:38:53;59.22;;;24.40;;
15331;SDS011;7766;51.534;6.722;2022-12-10T19:39:54;54.53;;;21.13;;
15331;SDS011;7766;51.534;6.722;2022-12-10T19:40:55;65.68;;;25.23;;
15331;SDS011;7766;51.534;6.722;2022-12-10T19:41:56;68.23;;;26.27;;
15331;SDS011;7766;51.534;6.722;2022-12-10T19:42:57;60.38;;;25.88;;
15331;SDS011;7766;51.534;6.722;2022-12-10T19:43:59;64.30;;;26.17;;
15331;SDS011;7766;51.534;6.722;2022-12-10T19:45:00;62.63;;;25.95;;